This is the latest recevied weather packets stored in our database for station/object KB3HLL. If no packets are shown the sender has not sent any weather packets the latest 10 day(s).
| Time | Temp. | Humidity | Pressure | Rain* | Wind** | Luminosity | Snow |
|---|---|---|---|---|---|---|---|
| 1778186179 | 12.78° C | 52% | 1009.8 hPa | 0 mm | - | 240 W/m² | - |
| 1778185878 | 12.78° C | 52% | 1009.8 hPa | 0 mm | - | 233 W/m² | - |
| 1778185578 | 12.78° C | 51% | 1009.8 hPa | 0 mm | - | 213 W/m² | - |
| 1778185278 | 12.78° C | 52% | 1009.8 hPa | 0 mm | - | 262 W/m² | - |
| 1778184978 | 12.78° C | 51% | 1009.8 hPa | 0 mm | - | 264 W/m² | - |
| 1778184677 | 12.78° C | 51% | 1009.9 hPa | 0 mm | - | 295 W/m² | - |
| 1778184377 | 12.78° C | 50% | 1009.9 hPa | 0 mm | - | 309 W/m² | - |
| 1778184078 | 12.78° C | 51% | 1010 hPa | 0 mm | - | 303 W/m² | - |
| 1778183778 | 12.78° C | 52% | 1010.1 hPa | 0 mm | - | 283 W/m² | - |
| 1778183479 | 12.78° C | 52% | 1009.9 hPa | 0 mm | - | 315 W/m² | - |
| 1778183179 | 13.33° C | 51% | 1010 hPa | 0 mm | - | 298 W/m² | - |
| 1778182879 | 13.33° C | 49% | 1010 hPa | 0 mm | - | 367 W/m² | - |
| 1778182293 | 12.22° C | 54% | 1010.2 hPa | 0 mm | - | 266 W/m² | - |
| 1778181978 | 11.67° C | 54% | 1010.2 hPa | 0 mm | - | 465 W/m² | - |
| 1778181680 | 11.67° C | 54% | 1010.2 hPa | 0 mm | - | 193 W/m² | - |
| 1778181380 | 11.67° C | 56% | 1010.2 hPa | 0 mm | - | 146 W/m² | - |
| 1778181077 | 11.67° C | 53% | 1010.2 hPa | 0 mm | - | 161 W/m² | - |
| 1778180777 | 11.67° C | 53% | 1010.2 hPa | 0 mm | - | 181 W/m² | - |
| 1778180478 | 11.67° C | 53% | 1010.3 hPa | 0 mm | - | 233 W/m² | - |
| 1778180177 | 11.67° C | 55% | 1010.3 hPa | 0 mm | - | 278 W/m² | - |
| 1778179878 | 11.67° C | 55% | 1010.3 hPa | 0 mm | - | 746 W/m² | - |
| 1778179578 | 11.11° C | 56% | 1010.4 hPa | 0 mm | - | 282 W/m² | - |
| 1778179280 | 11.11° C | 54% | 1010.4 hPa | 0 mm | - | 284 W/m² | - |
| 1778178980 | 11.11° C | 54% | 1010.5 hPa | 0 mm | - | 284 W/m² | - |
| 1778178678 | 11.67° C | 55% | 1010.5 hPa | 0 mm | - | 278 W/m² | - |
* Rain latest hour (hover to see other rain measurements)
** Current wind speed in m/s (hover to see current wind gust speed)